Latest Weather Observations for Lucas Heights

IDN60901

Issued at 1:01 pm EST Tuesday 3 May 2016 (issued every 10 minutes, with the page automatically refreshed every 10 minutes)

About weather observations | Map of Sydney area stations | Latest observations for Sydney area | Other Formats
Station Details ID: 066023 Name: LUCAS HEIGHTS AWS Lat: -34.05 Lon: 150.98 Height: 140.0 m
Data from the previous 72 hours. | See also: Recent months for locations in New South Wales
Date/Time
EST
Tmp

°C
App
Tmp
°C
Dew
Point
°C
Rel
Hum
%
Delta-T

°C
Wind Press
QNH
hPa
Press
MSL
hPa
Rain
since
9 am
mm
Dir
 
Spd
km/h
Gust
km/h
Spd
kts
Gust
kts
03/12:45pm 22.3 17.0 7.0 37 7.9 NW 24 37 13 20 1007.8 - 0.0
03/12:30pm 21.9 17.1 7.3 39 7.6 NW 22 33 12 18 1008.2 - 0.0
03/12:15pm 21.5 16.0 7.6 40 7.2 WNW 26 41 14 22 1008.6 - 0.0
03/12:00pm 21.1 16.9 8.2 43 6.8 NW 20 33 11 18 1009.0 - 0.0
03/11:45am 20.7 16.8 8.5 45 6.4 NW 19 32 10 17 1009.4 - 0.0
03/11:30am 20.0 16.0 8.4 47 6.1 WNW 19 32 10 17 1009.8 - 0.0
03/11:15am 19.6 16.1 8.7 49 5.7 NW 17 28 9 15 1010.2 - 0.0
03/11:00am 19.0 15.4 8.5 50 5.5 NW 17 24 9 13 1010.5 - 0.0
03/10:45am 18.7 15.9 8.6 52 5.3 NW 13 22 7 12 1010.8 - 0.0
03/10:30am 18.2 15.0 8.3 52 5.1 NW 15 24 8 13 1011.3 - 0.0
03/10:15am 17.9 15.4 8.3 53 5.0 NW 11 17 6 9 1011.7 - 0.0
03/10:00am 17.7 16.0 8.3 54 4.8 NW 7 13 4 7 1011.9 - 0.0
03/09:45am 17.6 15.9 8.2 54 4.8 WNW 7 13 4 7 1012.1 - 0.0
03/09:30am 17.4 16.4 8.8 57 4.5 NW 4 7 2 4 1012.3 - 0.0
03/09:15am 16.6 15.0 8.2 57 4.3 NW 6 7 3 4 1012.5 - 0.0
03/09:00am 16.0 14.3 7.6 57 4.2 NW 6 9 3 5 1012.6 - 0.0
03/08:45am 15.7 14.1 8.2 61 3.8 NW 6 11 3 6 1012.6 - 0.0
03/08:30am 14.8 13.5 9.1 68 2.9 WNW 6 11 3 6 1012.6 - 0.0
03/08:15am 13.5 12.0 8.4 71 2.6 WNW 6 7 3 4 1012.6 - 0.0
03/08:00am 12.6 11.0 8.0 73 2.3 WNW 6 11 3 6 1012.6 - 0.0
03/07:45am 12.5 10.8 8.3 75 2.1 W 7 13 4 7 1012.6 - 0.0
03/07:30am 11.7 8.6 8.8 82 1.5 WSW 15 19 8 10 1012.5 - 0.0
03/07:15am 9.5 6.5 7.6 88 0.9 WSW 13 17 7 9 1012.5 - 0.0
03/07:00am 8.7 6.2 6.7 87 0.9 WSW 9 13 5 7 1012.4 - 0.0
03/06:45am 8.9 6.0 6.7 86 1.0 WSW 11 11 6 6 1012.4 - 0.0
03/06:30am 9.0 6.5 6.6 85 1.1 WSW 9 13 5 7 1012.2 - 0.0
03/06:15am 9.0 6.1 6.5 84 1.2 WSW 11 13 6 7 1011.9 - 0.0
03/06:00am 9.1 6.2 6.3 83 1.3 SW 11 17 6 9 1011.8 - 0.0
03/05:45am 9.5 6.2 6.3 80 1.5 SW 13 17 7 9 1011.7 - 0.0
03/05:30am 9.6 6.6 6.2 79 1.6 SW 11 15 6 8 1011.7 - 0.0
03/05:15am 9.8 6.5 6.4 79 1.6 SW 13 17 7 9 1011.6 - 0.0
03/05:00am 9.7 6.4 6.3 79 1.6 SW 13 17 7 9 1011.5 - 0.0
03/04:45am 10.0 6.7 6.6 79 1.6 SW 13 15 7 8 1011.4 - 0.0
03/04:30am 9.8 6.2 6.6 80 1.5 SW 15 17 8 9 1011.4 - 0.0
03/04:15am 9.6 6.3 6.5 81 1.5 SSW 13 17 7 9 1011.3 - 0.0
03/04:00am 9.8 6.9 6.7 81 1.5 SSW 11 15 6 8 1011.3 - 0.0
03/03:45am 10.0 7.1 6.7 80 1.6 SSW 11 19 6 10 1011.3 - 0.0
03/03:30am 9.8 6.9 6.3 79 1.6 SSW 11 15 6 8 1011.3 - 0.0
03/03:15am 9.9 6.5 5.9 76 1.9 SSW 13 17 7 9 1011.3 - 0.0
03/03:00am 10.9 7.5 5.7 70 2.4 SW 13 17 7 9 1011.4 - 0.0
03/02:45am 11.7 7.1 5.6 66 2.9 SW 19 22 10 12 1011.5 - 0.0
03/02:30am 11.9 7.4 6.1 67 2.7 SW 19 20 10 11 1011.5 - 0.0
03/02:15am 11.5 7.3 5.9 68 2.6 SW 17 17 9 9 1011.8 - 0.0
03/02:00am 11.9 8.0 5.4 64 3.0 SW 15 17 8 9 1012.1 - 0.0
03/01:45am 12.5 7.9 5.6 63 3.2 SW 19 19 10 10 1012.3 - 0.0
03/01:30am 12.6 8.1 5.9 63 3.2 SW 19 19 10 10 1012.6 - 0.0
03/01:15am 12.5 8.8 6.1 65 3.0 SW 15 19 8 10 1012.8 - 0.0
03/01:00am 12.4 8.3 6.3 66 2.9 SW 17 19 9 10 1012.9 - 0.0
03/12:45am 12.2 8.5 6.3 67 2.8 SW 15 17 8 9 1013.1 - 0.0
03/12:30am 12.4 8.6 5.7 63 3.2 SW 15 17 8 9 1013.2 - 0.0
03/12:15am 13.0 8.4 5.5 60 3.5 SW 19 19 10 10 1013.3 - 0.0
03/12:00am 13.4 8.9 5.9 60 3.6 SW 19 20 10 11 1013.4 - 0.0
 
Date/Time
EST
Tmp

°C
App
Tmp
°C
Dew
Point
°C
Rel
Hum
%
Delta-T

°C
Wind Press
QNH
hPa
Press
MSL
hPa
Rain
since
9 am
mm
Dir
 
Spd
km/h
Gust
km/h
Spd
kts
Gust
kts
02/11:45pm 13.4 8.9 6.1 61 3.5 WSW 19 20 10 11 1013.5 - 0.0
02/11:30pm 13.3 8.9 6.4 63 3.3 SW 19 20 10 11 1013.6 - 0.0
02/11:15pm 13.2 9.4 7.6 69 2.8 SW 17 19 9 10 1013.8 - 0.0
02/11:00pm 12.6 9.4 8.3 75 2.1 SSW 15 17 8 9 1014.0 - 0.0
02/10:45pm 12.7 10.3 8.5 75 2.1 SSW 11 17 6 9 1014.1 - 0.0
02/10:30pm 12.8 10.5 9.1 78 1.9 SSW 11 13 6 7 1014.1 - 0.0
02/10:15pm 12.6 10.4 9.3 80 1.7 S 11 13 6 7 1014.2 - 0.0
02/10:00pm 12.7 10.9 9.4 80 1.7 SSW 9 13 5 7 1014.2 - 0.0
02/09:45pm 12.5 10.4 9.7 83 1.4 SSW 11 17 6 9 1014.2 - 0.0
02/09:30pm 13.3 10.9 9.9 80 1.8 SSW 13 19 7 10 1014.2 - 0.0
02/09:15pm 14.5 11.9 12.0 85 1.4 SW 17 19 9 10 1014.1 - 0.0
02/09:00pm 13.4 11.2 12.1 92 0.7 SSW 15 19 8 10 1014.0 - 0.0
02/08:45pm 13.4 11.9 12.0 91 0.8 S 11 15 6 8 1013.9 - 0.0
02/08:30pm 13.8 12.8 12.2 90 0.9 SSW 9 13 5 7 1013.9 - 0.0
02/08:15pm 14.1 12.7 12.1 88 1.1 WSW 11 17 6 9 1013.9 - 0.0
02/08:00pm 15.2 13.5 13.7 91 0.8 W 15 17 8 9 1013.8 - 0.0
02/07:45pm 14.2 13.4 12.8 91 0.8 W 9 17 5 9 1013.7 - 0.0
02/07:30pm 14.4 13.9 12.8 90 0.9 WNW 7 11 4 6 1013.6 - 0.0
02/07:15pm 14.7 14.5 12.9 89 1.0 NW 6 9 3 5 1013.5 - 0.0
02/07:00pm 15.0 14.8 13.1 88 1.1 NNW 6 9 3 5 1013.3 - 0.0
02/06:45pm 15.0 15.2 12.9 87 1.2 N 4 7 2 4 1012.9 - 0.0
02/06:30pm 15.3 15.5 13.0 86 1.3 NE 4 7 2 4 1012.8 - 0.0
02/06:15pm 15.6 15.4 13.0 84 1.5 NNE 6 7 3 4 1012.7 - 0.0
02/06:00pm 15.9 16.1 13.0 83 1.6 NE 4 7 2 4 1012.4 - 0.0
02/05:45pm 16.2 16.4 13.0 81 1.8 ENE 4 7 2 4 1012.1 - 0.0
02/05:30pm 16.5 16.7 13.0 80 2.0 E 4 6 2 3 1012.2 - 0.0
02/05:15pm 16.8 17.0 13.0 78 2.1 E 4 7 2 4 1012.1 - 0.0
02/05:00pm 17.2 17.0 13.0 76 2.4 E 6 7 3 4 1012.1 - 0.0
02/04:45pm 17.6 17.4 12.9 74 2.6 E 6 7 3 4 1012.2 - 0.0
02/04:30pm 17.9 17.6 12.8 72 2.9 E 6 7 3 4 1012.2 - 0.0
02/04:15pm 18.1 17.8 12.7 70 3.0 E 6 7 3 4 1012.3 - 0.0
02/04:00pm 18.3 17.8 12.8 70 3.1 E 7 9 4 5 1012.4 - 0.0
02/03:45pm 18.4 18.0 12.4 68 3.4 E 6 9 3 5 1012.5 - 0.0
02/03:30pm 18.7 18.1 12.2 66 3.6 E 7 11 4 6 1012.7 - 0.0
02/03:15pm 18.8 18.0 11.7 63 3.9 E 7 11 4 6 1012.5 - 0.0
02/03:00pm 19.2 17.9 11.2 60 4.4 ENE 9 13 5 7 1012.4 - 0.0
02/02:45pm 19.9 18.7 10.2 53 5.3 NE 7 13 4 7 1012.4 - 0.0
02/02:30pm 20.0 19.1 9.4 50 5.7 NNW 4 7 2 4 1012.3 - 0.0
02/02:15pm 20.0 18.6 8.7 48 6.0 N 6 7 3 4 1012.3 - 0.0
02/02:00pm 20.1 18.9 8.1 46 6.3 - 4 6 2 3 1012.3 - 0.0
02/01:45pm 20.0 18.9 8.4 47 6.1 NNE 4 7 2 4 1012.3 - 0.0
02/01:30pm 19.7 17.9 8.0 46 6.1 NNE 7 11 4 6 1012.6 - 0.0
02/01:15pm 20.0 18.3 8.2 46 6.2 NNE 7 11 4 6 1013.0 - 0.0
02/01:00pm 20.1 18.2 7.7 44 6.4 N 7 13 4 7 1013.5 - 0.0
02/12:45pm 20.6 17.9 7.5 42 6.8 NNW 11 20 6 11 1013.9 - 0.0
02/12:30pm 20.4 17.7 7.2 42 6.8 NNW 11 19 6 10 1014.0 - 0.0
02/12:15pm 20.0 17.6 6.9 42 6.7 NW 9 17 5 9 1013.7 - 0.0
02/12:00pm 19.6 17.6 7.1 44 6.4 NW 7 15 4 8 1014.0 - 0.0
02/11:45am 19.7 17.4 7.5 45 6.3 WNW 9 17 5 9 1014.4 - 0.0
02/11:30am 19.1 15.6 7.0 45 6.1 WNW 15 22 8 12 1014.8 - 0.0
02/11:15am 18.8 16.0 7.1 46 5.9 WNW 11 17 6 9 1015.1 - 0.0
02/11:00am 18.3 15.6 7.3 48 5.6 WNW 11 17 6 9 1015.3 - 0.0
02/10:45am 18.1 15.8 7.4 49 5.4 WNW 9 15 5 8 1015.6 - 0.0
02/10:30am 17.7 15.8 7.4 51 5.2 WNW 7 13 4 7 1015.9 - 0.0
02/10:15am 17.6 15.8 8.1 53 4.9 NW 7 17 4 9 1016.2 - 0.0
02/10:00am 16.9 14.2 7.5 54 4.7 NW 11 17 6 9 1016.5 - 0.0
02/09:45am 16.5 14.2 7.5 55 4.5 WNW 9 17 5 9 1016.7 - 0.0
02/09:30am 16.2 13.9 7.5 56 4.4 W 9 13 5 7 1016.8 - 0.0
02/09:15am 15.5 12.3 6.9 56 4.3 W 13 19 7 10 1017.0 - 0.0
02/09:00am 15.5 12.3 7.0 57 4.2 W 13 19 7 10 1017.1 - 0.0
02/08:45am 15.2 12.4 6.9 57 4.1 W 11 17 6 9 1017.3 - 0.0
02/08:30am 14.7 11.4 6.6 58 4.0 W 13 17 7 9 1017.4 - 0.0
02/08:15am 14.5 11.3 6.7 59 3.8 WSW 13 19 7 10 1017.4 - 0.0
02/08:00am 14.0 10.4 6.6 61 3.6 WSW 15 19 8 10 1017.4 - 0.0
02/07:45am 13.5 9.1 6.4 62 3.4 WSW 19 22 10 12 1017.3 - 0.0
02/07:30am 13.1 8.0 6.2 63 3.3 WSW 22 26 12 14 1017.2 - 0.0
02/07:15am 12.6 7.5 6.1 64 3.1 WSW 22 24 12 13 1017.2 - 0.0
02/07:00am 12.0 7.3 5.9 66 2.9 WSW 20 24 11 13 1017.3 - 0.0
02/06:45am 11.8 7.3 5.9 67 2.8 WSW 19 22 10 12 1017.3 - 0.0
02/06:30am 11.5 6.9 5.7 67 2.7 WSW 19 22 10 12 1017.3 - 0.0
02/06:15am 11.8 7.0 5.6 66 2.9 WSW 20 24 11 13 1017.1 - 0.0
02/06:00am 12.3 6.8 5.8 64 3.1 WSW 24 30 13 16 1017.0 - 0.0
02/05:45am 12.6 6.8 6.4 66 3.0 W 26 32 14 17 1016.9 - 0.0
02/05:30am 12.4 7.9 7.0 69 2.6 W 20 24 11 13 1016.8 - 0.0
02/05:15am 11.1 7.2 6.9 75 2.0 WNW 17 22 9 12 1016.7 - 0.0
02/05:00am 10.1 7.1 6.0 76 1.9 WNW 11 17 6 9 1016.5 - 0.0
02/04:45am 10.2 8.1 5.7 73 2.1 WNW 6 7 3 4 1016.3 - 0.0
02/04:30am 10.7 9.3 5.7 71 2.3 WNW 2 6 1 3 1016.1 - 0.0
02/04:15am 11.3 9.1 6.1 70 2.4 WSW 7 13 4 7 1015.9 - 0.0
02/04:00am 11.3 8.7 5.9 69 2.5 WSW 9 11 5 6 1015.8 - 0.0
02/03:45am 11.8 9.2 5.9 67 2.8 WSW 9 11 5 6 1015.8 - 0.0
02/03:30am 12.5 9.6 6.4 66 2.9 W 11 19 6 10 1015.7 - 0.0
02/03:15am 12.4 9.6 6.8 68 2.7 W 11 17 6 9 1015.7 - 0.0
02/03:00am 12.2 9.6 6.3 67 2.8 WSW 9 13 5 7 1015.9 - 0.0
02/02:45am 12.8 10.3 6.5 65 3.0 W 9 15 5 8 1015.8 - 0.0
02/02:30am 12.9 9.9 6.1 63 3.2 W 11 17 6 9 1015.8 - 0.0
02/02:15am 13.5 10.2 6.2 61 3.5 WSW 13 19 7 10 1015.8 - 0.0
02/02:00am 14.0 9.6 6.4 60 3.7 WSW 19 24 10 13 1015.5 - 0.0
02/01:45am 14.3 9.7 6.4 59 3.8 WSW 20 26 11 14 1015.6 - 0.0
02/01:30am 14.6 10.2 6.4 58 4.0 WSW 19 24 10 13 1015.6 - 0.0
02/01:15am 15.1 10.7 6.5 56 4.2 WSW 19 24 10 13 1015.6 - 0.0
02/01:00am 15.4 10.8 6.5 55 4.4 WSW 20 24 11 13 1015.8 - 0.0
02/12:45am 15.7 10.7 6.6 54 4.5 WSW 22 28 12 15 1015.7 - 0.0
02/12:30am 15.6 10.7 6.7 55 4.4 WSW 22 30 12 16 1015.9 - 0.0
02/12:15am 15.6 11.0 6.7 55 4.4 WSW 20 28 11 15 1015.9 - 0.0
02/12:00am 16.1 11.2 6.9 54 4.6 WSW 22 30 12 16 1015.9 - 0.0
 
Date/Time
EST
Tmp

°C
App
Tmp
°C
Dew
Point
°C
Rel
Hum
%
Delta-T

°C
Wind Press
QNH
hPa
Press
MSL
hPa
Rain
since
9 am
mm
Dir
 
Spd
km/h
Gust
km/h
Spd
kts
Gust
kts
01/11:45pm 16.2 11.3 7.0 54 4.6 WSW 22 32 12 17 1016.0 - 0.0
01/11:30pm 16.4 11.2 7.1 54 4.6 WSW 24 30 13 16 1015.9 - 0.0
01/11:15pm 16.5 11.3 7.2 54 4.7 WSW 24 33 13 18 1015.8 - 0.0
01/11:00pm 16.4 11.2 7.4 55 4.5 WSW 24 35 13 19 1015.9 - 0.0
01/10:45pm 16.6 11.8 7.5 55 4.6 SW 22 32 12 17 1015.8 - 0.0
01/10:30pm 17.0 11.9 7.6 54 4.8 SW 24 32 13 17 1015.7 - 0.0
01/10:15pm 17.3 11.8 7.6 53 4.9 SW 26 32 14 17 1015.6 - 0.0
01/10:00pm 17.6 12.5 7.5 51 5.1 SW 24 30 13 16 1015.5 - 0.0
01/09:45pm 17.7 13.3 7.3 50 5.3 WSW 20 26 11 14 1015.4 - 0.0
01/09:30pm 18.0 13.7 7.2 49 5.5 WSW 19 24 10 13 1015.2 - 0.0
01/09:15pm 18.4 14.1 7.2 48 5.7 WSW 19 24 10 13 1014.9 - 0.0
01/09:00pm 18.8 14.5 7.2 47 5.9 WSW 19 24 10 13 1014.6 - 0.0
01/08:45pm 19.0 14.2 7.3 46 6.0 WSW 22 30 12 16 1014.4 - 0.0
01/08:30pm 19.0 14.2 7.2 46 6.0 WSW 22 30 12 16 1014.2 - 0.0
01/08:15pm 19.0 14.6 7.3 46 6.0 WSW 20 30 11 16 1013.9 - 0.0
01/08:00pm 19.2 14.8 7.3 46 6.1 SW 20 26 11 14 1013.5 - 0.0
01/07:45pm 19.4 14.5 7.1 44 6.3 WSW 22 28 12 15 1013.2 - 0.0
01/07:30pm 20.0 14.7 7.0 43 6.6 WSW 24 32 13 17 1012.9 - 0.0
01/07:15pm 20.4 15.5 7.1 42 6.8 WSW 22 28 12 15 1012.6 - 0.0
01/07:00pm 20.9 16.7 7.4 41 7.0 WSW 19 24 10 13 1012.4 - 0.0
01/06:45pm 22.0 17.9 7.8 40 7.4 W 19 28 10 15 1012.2 - 0.0
01/06:30pm 22.4 17.7 7.9 39 7.6 W 22 32 12 17 1012.0 - 0.0
01/06:15pm 22.5 17.8 7.9 39 7.7 W 22 30 12 16 1011.8 - 0.0
01/06:00pm 22.7 18.6 7.9 38 7.8 WNW 19 30 10 16 1011.4 - 0.0
01/05:45pm 23.4 18.7 7.8 36 8.3 W 22 33 12 18 1011.1 - 0.0
01/05:30pm 23.9 18.0 7.7 35 8.6 WNW 28 39 15 21 1010.8 - 0.0
01/05:15pm 24.4 18.1 7.6 34 8.9 W 30 41 16 22 1010.5 - 0.0
01/05:00pm 25.0 17.7 7.3 32 9.4 W 35 50 19 27 1010.2 - 0.0
01/04:45pm 25.6 17.9 7.2 31 9.8 W 37 52 20 28 1010.0 - 0.0
01/04:30pm 26.1 18.0 7.0 29 10.1 W 39 59 21 32 1009.9 - 0.0
01/04:15pm 26.5 17.2 7.7 30 10.1 W 46 61 25 33 1009.7 - 0.0
01/04:00pm 26.8 21.0 10.9 37 9.0 W 32 48 17 26 1009.6 - 0.0
01/03:45pm 27.0 21.8 11.5 38 8.9 W 30 43 16 23 1009.4 - 0.0
01/03:30pm 27.2 21.7 11.9 38 8.9 WNW 32 41 17 22 1009.2 - 0.0
01/03:15pm 27.1 22.5 12.3 39 8.6 WNW 28 41 15 22 1009.1 - 0.0
01/03:00pm 26.3 22.1 14.6 48 7.0 WNW 30 48 16 26 1009.1 - 0.0
01/02:45pm 25.8 23.4 16.4 56 5.8 NW 24 41 13 22 1009.2 - 0.0
01/02:30pm 25.9 24.6 17.2 58 5.5 NNW 20 37 11 20 1009.1 - 0.0
01/02:15pm 25.1 24.2 17.7 63 4.7 N 19 30 10 16 1009.2 - 0.0
01/02:00pm 24.7 24.2 17.8 65 4.3 N 17 30 9 16 1009.3 - 0.0
01/01:45pm 24.3 23.2 17.8 67 4.1 NNW 20 33 11 18 1009.5 - 0.0
01/01:30pm 23.6 21.7 17.7 69 3.7 NNW 24 37 13 20 1009.6 - 0.0
01/01:15pm 23.1 20.4 17.5 70 3.5 NNW 28 41 15 22 1009.6 - 0.0
01/01:00pm 22.8 21.1 18.0 74 3.0 NNW 24 39 13 21 1009.8 - 0.0
01/12:45pm 22.2 21.7 18.6 80 2.3 NNW 19 33 10 18 1010.2 - 0.0
01/12:30pm 20.7 19.3 18.0 84 1.7 NNW 22 37 12 20 1010.6 - 0.0
01/12:15pm 20.2 19.2 17.9 87 1.4 NNW 20 37 11 20 1010.9 - 0.0
01/12:00pm 20.0 19.1 18.1 89 1.2 NNW 20 32 11 17 1011.3 - 0.0
01/11:45am 19.9 19.2 18.3 90 1.0 NNW 19 30 10 16 1011.8 - 0.0
01/11:30am 19.7 18.9 18.4 92 0.8 NNW 20 30 11 16 1012.3 - 0.0
01/11:15am 19.5 19.3 18.4 93 0.7 NNW 17 28 9 15 1012.5 - 0.0
01/11:00am 19.3 19.4 18.4 94 0.6 NNW 15 24 8 13 1012.8 - 0.0
01/10:45am 19.1 18.5 18.4 96 0.4 NNW 19 28 10 15 1013.0 - 0.0
01/10:30am 18.9 18.2 18.3 96 0.4 NNW 19 28 10 15 1013.1 - 0.0
01/10:15am 18.7 18.7 18.2 97 0.3 NNW 15 24 8 13 1012.9 - 0.0
01/10:00am 18.6 18.2 18.1 97 0.3 NNW 17 28 9 15 1012.8 - 0.0
01/09:45am 18.5 18.1 18.1 97 0.2 NNW 17 28 9 15 1012.9 - 0.0
01/09:30am 18.3 17.5 18.0 98 0.2 NNW 19 26 10 14 1012.9 - 0.0
01/09:15am 17.8 16.6 17.6 99 0.1 NNW 20 30 11 16 1013.1 - 0.0
01/09:00am 17.4 15.7 17.3 99 0.1 NNW 22 30 12 16 1013.4 - 3.2
01/08:45am 17.1 15.3 16.9 99 0.1 NNW 22 33 12 18 1013.4 - 3.0
01/08:30am 16.7 14.8 16.6 99 0.1 NNW 22 32 12 17 1013.4 - 3.0
01/08:15am 16.5 15.0 16.3 99 0.1 NNW 19 28 10 15 1013.6 - 3.0
01/08:00am 16.2 14.6 16.0 99 0.1 N 19 28 10 15 1013.6 - 3.0
01/07:45am 16.1 14.8 15.9 99 0.1 NNW 17 24 9 13 1013.9 - 3.0
01/07:30am 16.1 14.4 15.8 98 0.2 NNW 19 24 10 13 1014.3 - 2.7
01/07:15am 16.2 14.9 15.9 98 0.2 NW 17 22 9 12 1014.3 - 2.3
01/07:00am 16.3 14.7 16.1 99 0.1 NW 19 22 10 12 1014.2 - 1.9
01/06:45am 16.2 15.0 16.0 99 0.1 NNW 17 19 9 10 1013.9 - 1.5
01/06:30am 16.2 15.0 16.0 99 0.1 WNW 17 20 9 11 1013.7 - 1.3
01/06:15am 16.0 15.5 15.8 99 0.1 WNW 13 17 7 9 1013.2 - 0.9
01/06:00am 16.0 15.4 15.7 98 0.2 W 13 17 7 9 1013.1 - 0.9
01/05:45am 16.1 15.2 15.8 98 0.2 W 15 19 8 10 1013.3 - 0.9
01/05:30am 16.2 13.9 15.8 97 0.2 W 22 33 12 18 1013.5 - 0.9
01/05:15am 16.3 14.1 16.0 98 0.2 WNW 22 37 12 20 1012.8 - 0.0
01/05:00am 16.3 15.5 16.0 98 0.2 WNW 15 20 8 11 1012.5 - 0.0
01/04:45am 16.4 16.3 16.1 98 0.2 WNW 11 13 6 7 1012.4 - 0.0
01/04:30am 16.5 16.1 16.2 98 0.2 WNW 13 17 7 9 1012.8 - 0.0
01/04:15am 16.5 16.1 16.2 98 0.2 WNW 13 19 7 10 1013.0 - 0.0
01/04:00am 16.5 15.7 16.2 98 0.2 NW 15 19 8 10 1013.0 - 0.0
01/03:45am 16.5 15.7 16.2 98 0.2 NW 15 19 8 10 1013.2 - 0.0
01/03:30am 16.6 15.9 16.3 98 0.2 WNW 15 19 8 10 1013.3 - 0.0
01/03:15am 16.7 16.0 16.4 98 0.2 WNW 15 19 8 10 1013.3 - 0.0
01/03:00am 16.7 16.3 16.3 97 0.2 WNW 13 17 7 9 1013.3 - 0.0
01/02:45am 16.6 15.8 16.2 97 0.2 NW 15 17 8 9 1013.6 - 0.0
01/02:30am 16.4 15.9 16.0 97 0.2 NW 13 17 7 9 1013.7 - 0.0
01/02:15am 16.0 15.7 15.5 97 0.3 NW 11 13 6 7 1013.6 - 0.0
01/02:00am 16.7 16.7 16.3 97 0.2 NW 11 15 6 8 1013.9 - 0.0
01/01:45am 15.9 15.5 15.3 96 0.3 NNW 11 13 6 7 1014.2 - 0.0
01/01:30am 15.9 16.3 15.2 96 0.4 NW 7 9 4 5 1014.3 - 0.0
01/01:15am 16.1 16.7 15.3 95 0.5 W 6 7 3 4 1014.4 - 0.0
01/01:00am 16.1 17.0 15.2 94 0.5 WSW 4 6 2 3 1014.4 - 0.0
01/12:45am 17.1 18.0 16.2 94 0.5 WSW 6 7 3 4 1014.9 - 0.0
01/12:30am 17.6 17.8 16.8 95 0.5 WNW 11 17 6 9 1015.4 - 0.0
01/12:15am 17.5 16.5 16.6 94 0.5 NW 17 20 9 11 1015.6 - 0.0
01/12:00am 17.4 17.4 16.3 93 0.7 NW 11 13 6 7 1015.3 - 0.0
 
Date/Time
EST
Tmp

°C
App
Tmp
°C
Dew
Point
°C
Rel
Hum
%
Delta-T

°C
Wind Press
QNH
hPa
Press
MSL
hPa
Rain
since
9 am
mm
Dir
 
Spd
km/h
Gust
km/h
Spd
kts
Gust
kts
30/11:45pm 18.2 18.6 17.2 94 0.6 NW 11 15 6 8 1015.2 - 0.0
30/11:30pm 18.2 17.9 17.3 94 0.5 NW 15 19 8 10 1015.5 - 0.0
30/11:15pm 18.1 17.8 17.3 95 0.5 NW 15 17 8 9 1015.8 - 0.0
30/11:00pm 17.7 18.0 16.9 95 0.5 NW 11 15 6 8 1015.9 - 0.0
30/10:45pm 17.7 18.3 16.9 95 0.5 NW 9 11 5 6 1016.0 - 0.0
30/10:30pm 16.9 17.5 15.9 94 0.6 WNW 7 11 4 6 1016.1 - 0.0
30/10:15pm 17.1 17.7 15.9 93 0.7 NW 7 9 4 5 1016.1 - 0.0
30/10:00pm 17.4 18.1 16.2 93 0.7 NW 7 9 4 5 1016.4 - 0.0
30/09:45pm 17.9 18.0 16.6 92 0.8 NNW 11 13 6 7 1016.5 - 0.0
30/09:30pm 17.7 17.7 16.2 91 0.9 NNW 11 15 6 8 1016.6 - 0.0
30/09:15pm 17.8 18.1 16.1 90 1.0 NNW 9 13 5 7 1016.8 - 0.0
30/09:00pm 18.4 18.6 16.7 90 1.0 NNW 11 15 6 8 1016.9 - 0.0
30/08:45pm 18.4 18.5 16.6 89 1.1 NNW 11 17 6 9 1016.9 - 0.0
30/08:30pm 18.3 18.7 16.3 88 1.2 N 9 13 5 7 1016.8 - 0.0
30/08:15pm 18.3 19.0 16.2 87 1.3 N 7 11 4 6 1016.8 - 0.0
30/08:00pm 18.5 18.4 16.0 85 1.5 - 11 15 6 8 1016.6 - 0.0
30/07:45pm 18.8 19.1 16.1 84 1.6 N 9 13 5 7 1016.4 - 0.0
30/07:30pm 19.2 19.1 16.1 82 1.9 NNW 11 13 6 7 1016.4 - 0.0
30/07:15pm 19.8 19.9 16.5 81 2.0 NNW 11 13 6 7 1016.3 - 0.0
30/07:00pm 19.9 19.3 16.7 82 1.9 NNW 15 17 8 9 1016.3 - 0.0
30/06:45pm 19.6 19.2 16.1 80 2.1 NNW 13 17 7 9 1016.1 - 0.0
30/06:30pm 20.1 19.8 16.4 79 2.2 NNW 13 15 7 8 1016.1 - 0.0
30/06:15pm 20.5 19.9 16.7 79 2.3 NNW 15 17 8 9 1016.0 - 0.0
30/06:00pm 20.3 19.6 16.4 78 2.4 NNW 15 17 8 9 1015.9 - 0.0
30/05:45pm 20.9 20.3 16.6 76 2.6 NNW 15 19 8 10 1015.8 - 0.0
30/05:30pm 21.3 20.8 16.8 75 2.8 NNW 15 19 8 10 1015.7 - 0.0
30/05:15pm 21.7 21.9 16.8 73 3.0 N 11 15 6 8 1015.6 - 0.0
30/05:00pm 22.5 23.0 16.6 69 3.6 NNW 9 13 5 7 1015.6 - 0.0
30/04:45pm 23.7 25.3 16.8 65 4.3 NNW 4 11 2 6 1015.6 - 0.0
30/04:30pm 23.7 25.3 16.9 65 4.2 NNW 4 7 2 4 1015.6 - 0.0
30/04:15pm 24.0 25.2 16.8 64 4.5 NNW 6 11 3 6 1015.6 - 0.0
30/04:00pm 24.2 25.3 17.1 64 4.4 N 7 11 4 6 1015.5 - 0.0
30/03:45pm 24.3 25.6 17.6 66 4.2 N 7 11 4 6 1015.5 - 0.0
30/03:30pm 23.5 24.8 17.2 67 3.9 NNE 6 9 3 5 1015.5 - 0.0
30/03:15pm 23.6 25.2 16.8 65 4.2 N 4 9 2 5 1015.5 - 0.0
30/03:00pm 24.0 25.2 16.8 64 4.5 N 6 7 3 4 1015.5 - 0.0
30/02:45pm 24.1 25.1 16.8 63 4.5 NNW 7 11 4 6 1015.5 - 0.0
30/02:30pm 24.0 25.3 17.0 65 4.3 NNW 6 11 3 6 1015.5 - 0.0
30/02:15pm 23.8 24.7 16.7 64 4.4 NNW 7 11 4 6 1015.6 - 0.0
30/02:00pm 23.7 24.6 16.7 65 4.3 NNW 7 13 4 7 1015.6 - 0.0
30/01:45pm 23.9 24.9 16.8 64 4.4 NNW 7 13 4 7 1015.7 - 0.0
30/01:30pm 23.3 23.9 16.7 66 4.1 NW 9 13 5 7 1015.7 - 0.0
30/01:15pm 23.4 24.0 16.8 66 4.1 NNW 9 19 5 10 1015.8 - 0.0

Latest Capital City Observations: Canberra | Sydney | Melbourne | Brisbane | Adelaide | Perth | Hobart | Darwin

Other Formats:

Comma delimited format used in spreadsheet applications
http://www.bom.gov.au/fwo/IDN60901/IDN60901.95757.axf

JavaScript Object Notation format (JSON) in row-major order
http://www.bom.gov.au/fwo/IDN60901/IDN60901.95757.json